Portada
METAR-TAF:

METAR-TAF

Aeropuertos :

Kunming, China

Aeropuerto Internacional de Kunming-Changshui

latitud: 25-01N, longitud: 102-41E, altitud: 1892 m

Observación

El informe se hizo hace 1 hora y 7 minutos, a las 12:00 UTC
Viento 6 kt del norte-noroeste
Temperatura 9°C
Humedad 87%
Presión 1024 hPa
Visibilidad: 7000 m
Escasas nubes a una altura de 2000 ft
Cielo nuboso a una altura de 3600 ft

METAR: ZPPP 261200Z 33003MPS 7000 FEW020 BKN036 09/07 Q1024 NOSIG

Hora: 21:07 (13:07 UTC)

Pronóstico

El informe se hizo hace 5 horas y 57 minutos, a las 07:10 UTC
Pronóstico válido del 26 a las 12 UTC al 27 a las 12 UTC
Viento 8 kt del noreste
Visibilidad: 6000 m
Nubes dispersas a una altura de 2300 ft
Cielo nuboso a una altura de 3300 ft

TAF: ZPPP 260710Z 2612/2712 04004MPS 6000 SCT023 BKN033 TX16/2708Z TN04/2623Z

Observaciones y pronósticos meteorológicos de más de 4000 aeropuertos (mensajes METAR y TAF).

Los puntos amarillos y rojos representan las estaciones disponibles.

Ponga el ratón en el punto deseado para ver el nombre de la estación.

Haga clic para ver las observaciones y los pronósticos meteorológicos.

Para cambiar el mapa : haga clic en los botones verdes con una cruz de color negro para hacer un zoom, en el botón verde con un guión para alejar o en las flechas verdes para mapas adyacentes.


METAR-TAF: